sensor_id;sensor_type;location;lat;lon;timestamp;temperature;humidity
14378;DHT22;7272;53.668;9.578;2023-04-01T00:01:56;11.10;99.90
14378;DHT22;7272;53.668;9.578;2023-04-01T00:04:58;11.20;99.90
14378;DHT22;7272;53.668;9.578;2023-04-01T00:08:01;11.20;99.90
14378;DHT22;7272;53.668;9.578;2023-04-01T00:11:03;11.10;99.90
14378;DHT22;7272;53.668;9.578;2023-04-01T00:14:05;11.20;99.90
14378;DHT22;7272;53.668;9.578;2023-04-01T00:17:08;11.10;99.90
14378;DHT22;7272;53.668;9.578;2023-04-01T00:20:11;11.10;99.90
14378;DHT22;7272;53.668;9.578;2023-04-01T00:23:16;11.20;99.90
14378;DHT22;7272;53.668;9.578;2023-04-01T00:26:19;11.20;99.90
14378;DHT22;7272;53.668;9.578;2023-04-01T00:29:22;11.20;99.90
14378;DHT22;7272;53.668;9.578;2023-04-01T00:32:24;11.20;99.90
14378;DHT22;7272;53.668;9.578;2023-04-01T00:35:27;11.20;99.90
14378;DHT22;7272;53.668;9.578;2023-04-01T00:38:30;11.10;99.90
14378;DHT22;7272;53.668;9.578;2023-04-01T00:41:32;11.10;99.90
14378;DHT22;7272;53.668;9.578;2023-04-01T00:44:34;11.10;99.90
14378;DHT22;7272;53.668;9.578;2023-04-01T00:47:36;11.20;99.90
14378;DHT22;7272;53.668;9.578;2023-04-01T00:50:40;11.10;99.90
14378;DHT22;7272;53.668;9.578;2023-04-01T00:53:48;11.20;99.90
14378;DHT22;7272;53.668;9.578;2023-04-01T00:56:52;11.20;99.90
14378;DHT22;7272;53.668;9.578;2023-04-01T00:59:56;11.20;99.90
14378;DHT22;7272;53.668;9.578;2023-04-01T01:02:59;11.20;99.90
14378;DHT22;7272;53.668;9.578;2023-04-01T01:06:10;11.30;99.90
14378;DHT22;7272;53.668;9.578;2023-04-01T01:09:25;11.30;99.90
14378;DHT22;7272;53.668;9.578;2023-04-01T01:12:33;11.30;99.90
14378;DHT22;7272;53.668;9.578;2023-04-01T01:15:41;11.30;99.90
14378;DHT22;7272;53.668;9.578;2023-04-01T01:18:50;11.20;99.90
14378;DHT22;7272;53.668;9.578;2023-04-01T01:22:07;11.30;99.90
14378;DHT22;7272;53.668;9.578;2023-04-01T01:25:38;11.20;99.90
14378;DHT22;7272;53.668;9.578;2023-04-01T01:28:50;11.20;99.90
14378;DHT22;7272;53.668;9.578;2023-04-01T01:32:03;11.20;99.90
14378;DHT22;7272;53.668;9.578;2023-04-01T01:35:21;11.30;99.90
14378;DHT22;7272;53.668;9.578;2023-04-01T01:38:27;11.30;99.90
14378;DHT22;7272;53.668;9.578;2023-04-01T01:41:35;11.30;99.90
14378;DHT22;7272;53.668;9.578;2023-04-01T01:44:38;11.30;99.90
14378;DHT22;7272;53.668;9.578;2023-04-01T01:47:43;11.30;99.90
14378;DHT22;7272;53.668;9.578;2023-04-01T01:50:48;11.30;99.90
14378;DHT22;7272;53.668;9.578;2023-04-01T01:53:51;11.30;99.90
14378;DHT22;7272;53.668;9.578;2023-04-01T01:57:05;11.30;99.90
14378;DHT22;7272;53.668;9.578;2023-04-01T02:00:10;11.30;99.90
14378;DHT22;7272;53.668;9.578;2023-04-01T02:03:17;11.30;99.90
14378;DHT22;7272;53.668;9.578;2023-04-01T02:06:25;11.30;99.90
14378;DHT22;7272;53.668;9.578;2023-04-01T02:09:28;11.30;99.90
14378;DHT22;7272;53.668;9.578;2023-04-01T02:12:31;11.40;99.90
14378;DHT22;7272;53.668;9.578;2023-04-01T02:15:39;11.30;99.90
14378;DHT22;7272;53.668;9.578;2023-04-01T02:18:45;11.30;99.90
14378;DHT22;7272;53.668;9.578;2023-04-01T02:21:54;11.40;99.90
14378;DHT22;7272;53.668;9.578;2023-04-01T02:25:01;11.30;99.90
14378;DHT22;7272;53.668;9.578;2023-04-01T02:28:06;11.30;99.90
14378;DHT22;7272;53.668;9.578;2023-04-01T02:31:09;11.30;99.90
14378;DHT22;7272;53.668;9.578;2023-04-01T02:34:13;11.40;99.90
14378;DHT22;7272;53.668;9.578;2023-04-01T02:37:17;11.50;99.90
14378;DHT22;7272;53.668;9.578;2023-04-01T02:40:19;11.40;99.90
14378;DHT22;7272;53.668;9.578;2023-04-01T02:43:21;11.30;99.90
14378;DHT22;7272;53.668;9.578;2023-04-01T02:46:23;11.30;99.90
14378;DHT22;7272;53.668;9.578;2023-04-01T02:49:25;11.40;99.90
14378;DHT22;7272;53.668;9.578;2023-04-01T02:52:29;11.30;99.90
14378;DHT22;7272;53.668;9.578;2023-04-01T02:55:35;11.30;99.90
14378;DHT22;7272;53.668;9.578;2023-04-01T02:58:37;11.30;99.90
14378;DHT22;7272;53.668;9.578;2023-04-01T03:01:39;11.30;99.90
14378;DHT22;7272;53.668;9.578;2023-04-01T03:04:41;11.30;99.90
14378;DHT22;7272;53.668;9.578;2023-04-01T03:07:45;11.30;99.90
14378;DHT22;7272;53.668;9.578;2023-04-01T03:10:47;11.30;99.90
14378;DHT22;7272;53.668;9.578;2023-04-01T03:13:49;11.40;99.90
14378;DHT22;7272;53.668;9.578;2023-04-01T03:16:51;11.50;99.90
14378;DHT22;7272;53.668;9.578;2023-04-01T03:19:54;11.50;99.90
14378;DHT22;7272;53.668;9.578;2023-04-01T03:22:57;11.40;99.90
14378;DHT22;7272;53.668;9.578;2023-04-01T03:26:01;11.40;99.90
14378;DHT22;7272;53.668;9.578;2023-04-01T03:29:03;11.40;99.90
14378;DHT22;7272;53.668;9.578;2023-04-01T03:32:05;11.40;99.90
14378;DHT22;7272;53.668;9.578;2023-04-01T03:35:08;11.40;99.90
14378;DHT22;7272;53.668;9.578;2023-04-01T03:38:12;11.40;99.90
14378;DHT22;7272;53.668;9.578;2023-04-01T03:41:16;11.40;99.90
14378;DHT22;7272;53.668;9.578;2023-04-01T03:44:18;11.40;99.90
14378;DHT22;7272;53.668;9.578;2023-04-01T03:47:24;11.40;99.90
14378;DHT22;7272;53.668;9.578;2023-04-01T03:50:26;11.30;99.90
14378;DHT22;7272;53.668;9.578;2023-04-01T03:53:29;11.40;99.90
14378;DHT22;7272;53.668;9.578;2023-04-01T03:56:34;11.30;99.90
14378;DHT22;7272;53.668;9.578;2023-04-01T03:59:36;11.30;99.90
14378;DHT22;7272;53.668;9.578;2023-04-01T04:02:40;11.40;99.90
14378;DHT22;7272;53.668;9.578;2023-04-01T04:05:46;11.40;99.90
14378;DHT22;7272;53.668;9.578;2023-04-01T04:08:51;11.40;99.90
14378;DHT22;7272;53.668;9.578;2023-04-01T04:11:53;11.30;99.90
14378;DHT22;7272;53.668;9.578;2023-04-01T04:14:55;11.30;99.90
14378;DHT22;7272;53.668;9.578;2023-04-01T04:17:57;11.30;99.90
14378;DHT22;7272;53.668;9.578;2023-04-01T04:20:59;11.30;99.90
14378;DHT22;7272;53.668;9.578;2023-04-01T04:24:03;11.30;99.90
14378;DHT22;7272;53.668;9.578;2023-04-01T04:27:25;11.20;99.90
14378;DHT22;7272;53.668;9.578;2023-04-01T04:30:36;11.20;99.90
14378;DHT22;7272;53.668;9.578;2023-04-01T04:33:38;11.20;99.90
14378;DHT22;7272;53.668;9.578;2023-04-01T04:36:40;11.10;99.90
14378;DHT22;7272;53.668;9.578;2023-04-01T04:39:44;10.80;99.90
14378;DHT22;7272;53.668;9.578;2023-04-01T04:42:45;10.60;99.90
14378;DHT22;7272;53.668;9.578;2023-04-01T04:45:50;10.50;99.90
14378;DHT22;7272;53.668;9.578;2023-04-01T04:48:52;10.50;99.90
14378;DHT22;7272;53.668;9.578;2023-04-01T04:51:54;10.40;99.90
14378;DHT22;7272;53.668;9.578;2023-04-01T04:55:00;10.30;99.90
14378;DHT22;7272;53.668;9.578;2023-04-01T04:58:02;10.20;99.90
14378;DHT22;7272;53.668;9.578;2023-04-01T05:01:09;10.00;99.90
14378;DHT22;7272;53.668;9.578;2023-04-01T05:04:12;9.90;99.90
14378;DHT22;7272;53.668;9.578;2023-04-01T05:07:15;9.90;99.90
14378;DHT22;7272;53.668;9.578;2023-04-01T05:10:19;9.80;99.90
14378;DHT22;7272;53.668;9.578;2023-04-01T05:13:21;9.70;99.90
14378;DHT22;7272;53.668;9.578;2023-04-01T05:16:24;9.60;99.90
14378;DHT22;7272;53.668;9.578;2023-04-01T05:19:26;9.60;99.90
14378;DHT22;7272;53.668;9.578;2023-04-01T05:22:28;9.50;99.90
14378;DHT22;7272;53.668;9.578;2023-04-01T05:25:31;9.40;99.90
14378;DHT22;7272;53.668;9.578;2023-04-01T05:28:33;9.40;99.90
14378;DHT22;7272;53.668;9.578;2023-04-01T05:31:35;9.40;99.90
14378;DHT22;7272;53.668;9.578;2023-04-01T05:34:39;9.30;99.90
14378;DHT22;7272;53.668;9.578;2023-04-01T05:37:42;9.30;99.90
14378;DHT22;7272;53.668;9.578;2023-04-01T05:40:45;9.30;99.90
14378;DHT22;7272;53.668;9.578;2023-04-01T05:43:47;9.30;99.90
14378;DHT22;7272;53.668;9.578;2023-04-01T05:47:25;9.20;99.90
14378;DHT22;7272;53.668;9.578;2023-04-01T05:50:27;9.10;99.90
14378;DHT22;7272;53.668;9.578;2023-04-01T05:53:29;9.10;99.90
14378;DHT22;7272;53.668;9.578;2023-04-01T05:56:33;9.10;99.90
14378;DHT22;7272;53.668;9.578;2023-04-01T05:59:35;9.00;99.90
14378;DHT22;7272;53.668;9.578;2023-04-01T06:02:38;9.00;99.90
14378;DHT22;7272;53.668;9.578;2023-04-01T06:05:43;8.90;99.90
14378;DHT22;7272;53.668;9.578;2023-04-01T06:08:45;8.90;99.90
14378;DHT22;7272;53.668;9.578;2023-04-01T06:12:08;8.90;99.90
14378;DHT22;7272;53.668;9.578;2023-04-01T06:15:33;8.80;99.90
14378;DHT22;7272;53.668;9.578;2023-04-01T06:18:56;8.90;99.90
14378;DHT22;7272;53.668;9.578;2023-04-01T06:22:32;8.90;99.90
14378;DHT22;7272;53.668;9.578;2023-04-01T06:25:58;8.90;99.90
14378;DHT22;7272;53.668;9.578;2023-04-01T06:29:31;8.80;99.90
14378;DHT22;7272;53.668;9.578;2023-04-01T06:32:57;8.70;99.90
14378;DHT22;7272;53.668;9.578;2023-04-01T06:36:39;8.60;99.90
14378;DHT22;7272;53.668;9.578;2023-04-01T06:43:24;8.60;99.90
14378;DHT22;7272;53.668;9.578;2023-04-01T06:47:19;8.60;99.90
14378;DHT22;7272;53.668;9.578;2023-04-01T06:50:56;8.50;99.90
14378;DHT22;7272;53.668;9.578;2023-04-01T06:54:25;8.60;99.90
14378;DHT22;7272;53.668;9.578;2023-04-01T06:57:51;8.50;99.90
14378;DHT22;7272;53.668;9.578;2023-04-01T07:00:57;8.40;99.90
14378;DHT22;7272;53.668;9.578;2023-04-01T07:04:06;8.50;99.90
14378;DHT22;7272;53.668;9.578;2023-04-01T07:07:16;8.50;99.90
14378;DHT22;7272;53.668;9.578;2023-04-01T07:10:34;8.50;99.90
14378;DHT22;7272;53.668;9.578;2023-04-01T07:14:08;8.50;99.90
14378;DHT22;7272;53.668;9.578;2023-04-01T07:17:16;8.50;99.90
14378;DHT22;7272;53.668;9.578;2023-04-01T07:20:23;8.60;99.90
14378;DHT22;7272;53.668;9.578;2023-04-01T07:23:31;8.60;99.90
14378;DHT22;7272;53.668;9.578;2023-04-01T07:26:55;8.70;99.90
14378;DHT22;7272;53.668;9.578;2023-04-01T07:30:03;8.60;99.90
14378;DHT22;7272;53.668;9.578;2023-04-01T07:33:11;8.60;99.90
14378;DHT22;7272;53.668;9.578;2023-04-01T07:36:24;8.50;99.90
14378;DHT22;7272;53.668;9.578;2023-04-01T07:39:37;8.30;99.90
14378;DHT22;7272;53.668;9.578;2023-04-01T07:43:06;8.30;99.90
14378;DHT22;7272;53.668;9.578;2023-04-01T07:46:26;8.20;99.90
14378;DHT22;7272;53.668;9.578;2023-04-01T07:49:38;8.30;99.90
14378;DHT22;7272;53.668;9.578;2023-04-01T07:52:52;8.30;99.90
14378;DHT22;7272;53.668;9.578;2023-04-01T07:56:06;8.30;99.90
14378;DHT22;7272;53.668;9.578;2023-04-01T07:59:16;8.40;99.90
14378;DHT22;7272;53.668;9.578;2023-04-01T08:03:02;8.40;99.90
14378;DHT22;7272;53.668;9.578;2023-04-01T08:06:12;8.40;99.90
14378;DHT22;7272;53.668;9.578;2023-04-01T08:09:25;8.30;99.90
14378;DHT22;7272;53.668;9.578;2023-04-01T08:13:03;8.30;99.90
14378;DHT22;7272;53.668;9.578;2023-04-01T08:16:45;8.50;99.90
14378;DHT22;7272;53.668;9.578;2023-04-01T08:20:03;8.40;99.90
14378;DHT22;7272;53.668;9.578;2023-04-01T08:23:16;8.30;99.90
14378;DHT22;7272;53.668;9.578;2023-04-01T08:26:26;8.30;99.90
14378;DHT22;7272;53.668;9.578;2023-04-01T08:29:38;8.10;99.90
14378;DHT22;7272;53.668;9.578;2023-04-01T08:32:44;8.20;99.90
14378;DHT22;7272;53.668;9.578;2023-04-01T08:35:51;8.30;99.90
14378;DHT22;7272;53.668;9.578;2023-04-01T08:38:57;8.30;99.90
14378;DHT22;7272;53.668;9.578;2023-04-01T08:42:25;8.40;99.90
14378;DHT22;7272;53.668;9.578;2023-04-01T08:46:06;8.40;99.90
14378;DHT22;7272;53.668;9.578;2023-04-01T08:49:26;8.40;99.90
14378;DHT22;7272;53.668;9.578;2023-04-01T08:52:36;8.30;99.90
14378;DHT22;7272;53.668;9.578;2023-04-01T08:55:56;8.30;99.90
14378;DHT22;7272;53.668;9.578;2023-04-01T08:59:14;8.30;99.90
14378;DHT22;7272;53.668;9.578;2023-04-01T09:02:49;8.20;99.90
14378;DHT22;7272;53.668;9.578;2023-04-01T09:06:19;8.30;99.90
14378;DHT22;7272;53.668;9.578;2023-04-01T09:13:19;8.30;99.90
14378;DHT22;7272;53.668;9.578;2023-04-01T09:16:31;8.40;99.90
14378;DHT22;7272;53.668;9.578;2023-04-01T09:19:55;8.40;99.90
14378;DHT22;7272;53.668;9.578;2023-04-01T09:23:15;8.30;99.90
14378;DHT22;7272;53.668;9.578;2023-04-01T09:26:31;8.30;99.90
14378;DHT22;7272;53.668;9.578;2023-04-01T09:33:41;8.50;99.90
14378;DHT22;7272;53.668;9.578;2023-04-01T09:36:45;8.70;99.90
14378;DHT22;7272;53.668;9.578;2023-04-01T09:43:27;8.50;99.90
14378;DHT22;7272;53.668;9.578;2023-04-01T09:46:42;8.40;99.90
14378;DHT22;7272;53.668;9.578;2023-04-01T09:50:16;8.50;99.90
14378;DHT22;7272;53.668;9.578;2023-04-01T09:53:41;8.50;99.90
14378;DHT22;7272;53.668;9.578;2023-04-01T09:57:14;8.60;99.90
14378;DHT22;7272;53.668;9.578;2023-04-01T10:01:01;8.70;99.90
14378;DHT22;7272;53.668;9.578;2023-04-01T10:04:40;8.60;99.90
14378;DHT22;7272;53.668;9.578;2023-04-01T10:12:00;8.70;99.90
14378;DHT22;7272;53.668;9.578;2023-04-01T10:23:00;8.80;99.90
14378;DHT22;7272;53.668;9.578;2023-04-01T10:26:49;9.00;99.90
14378;DHT22;7272;53.668;9.578;2023-04-01T10:45:29;8.80;99.90
14378;DHT22;7272;53.668;9.578;2023-04-01T10:56:55;9.00;99.90
14378;DHT22;7272;53.668;9.578;2023-04-01T11:00:37;9.00;99.90
14378;DHT22;7272;53.668;9.578;2023-04-01T11:04:15;9.00;99.90
14378;DHT22;7272;53.668;9.578;2023-04-01T11:12:15;9.00;99.90
14378;DHT22;7272;53.668;9.578;2023-04-01T11:19:42;9.10;99.90
14378;DHT22;7272;53.668;9.578;2023-04-01T11:22:59;8.70;99.90
14378;DHT22;7272;53.668;9.578;2023-04-01T11:26:12;8.70;99.90
14378;DHT22;7272;53.668;9.578;2023-04-01T11:29:53;8.70;99.90
14378;DHT22;7272;53.668;9.578;2023-04-01T11:33:03;8.90;99.90
14378;DHT22;7272;53.668;9.578;2023-04-01T11:36:29;8.90;99.90
14378;DHT22;7272;53.668;9.578;2023-04-01T11:39:46;8.90;99.90
14378;DHT22;7272;53.668;9.578;2023-04-01T11:43:21;8.90;99.90
14378;DHT22;7272;53.668;9.578;2023-04-01T11:47:19;8.80;99.90
14378;DHT22;7272;53.668;9.578;2023-04-01T11:50:34;8.90;99.90
14378;DHT22;7272;53.668;9.578;2023-04-01T11:53:47;8.70;99.90
14378;DHT22;7272;53.668;9.578;2023-04-01T11:57:04;8.80;99.90
14378;DHT22;7272;53.668;9.578;2023-04-01T12:00:22;8.70;99.90
14378;DHT22;7272;53.668;9.578;2023-04-01T12:07:19;8.70;99.90
14378;DHT22;7272;53.668;9.578;2023-04-01T12:10:28;8.70;99.90
14378;DHT22;7272;53.668;9.578;2023-04-01T12:13:40;8.70;99.90
14378;DHT22;7272;53.668;9.578;2023-04-01T12:16:53;8.70;99.90
14378;DHT22;7272;53.668;9.578;2023-04-01T12:19:59;8.70;99.90
14378;DHT22;7272;53.668;9.578;2023-04-01T12:23:21;8.60;99.90
14378;DHT22;7272;53.668;9.578;2023-04-01T12:26:43;8.50;99.90
14378;DHT22;7272;53.668;9.578;2023-04-01T12:30:00;8.40;99.90
14378;DHT22;7272;53.668;9.578;2023-04-01T12:33:16;8.40;99.90
14378;DHT22;7272;53.668;9.578;2023-04-01T12:36:40;8.40;99.90
14378;DHT22;7272;53.668;9.578;2023-04-01T12:40:01;8.30;99.90
14378;DHT22;7272;53.668;9.578;2023-04-01T12:47:13;8.20;99.90
14378;DHT22;7272;53.668;9.578;2023-04-01T12:50:33;8.10;99.90
14378;DHT22;7272;53.668;9.578;2023-04-01T12:57:22;8.00;99.90
14378;DHT22;7272;53.668;9.578;2023-04-01T13:00:44;8.00;99.90
14378;DHT22;7272;53.668;9.578;2023-04-01T13:04:15;8.00;99.90
14378;DHT22;7272;53.668;9.578;2023-04-01T13:07:31;8.10;99.90
14378;DHT22;7272;53.668;9.578;2023-04-01T13:10:47;8.10;99.90
14378;DHT22;7272;53.668;9.578;2023-04-01T13:14:12;8.00;99.90
14378;DHT22;7272;53.668;9.578;2023-04-01T13:17:22;8.00;99.90
14378;DHT22;7272;53.668;9.578;2023-04-01T13:20:39;7.80;99.90
14378;DHT22;7272;53.668;9.578;2023-04-01T13:23:55;7.80;99.90
14378;DHT22;7272;53.668;9.578;2023-04-01T13:27:06;7.80;99.90
14378;DHT22;7272;53.668;9.578;2023-04-01T13:30:23;7.70;99.90
14378;DHT22;7272;53.668;9.578;2023-04-01T13:33:32;7.70;99.90
14378;DHT22;7272;53.668;9.578;2023-04-01T13:36:43;7.70;99.90
14378;DHT22;7272;53.668;9.578;2023-04-01T13:40:14;7.70;99.90
14378;DHT22;7272;53.668;9.578;2023-04-01T13:43:26;7.80;99.90
14378;DHT22;7272;53.668;9.578;2023-04-01T13:46:44;7.80;99.90
14378;DHT22;7272;53.668;9.578;2023-04-01T13:50:05;7.60;99.90
14378;DHT22;7272;53.668;9.578;2023-04-01T13:57:07;7.60;99.90
14378;DHT22;7272;53.668;9.578;2023-04-01T14:00:33;7.60;99.90
14378;DHT22;7272;53.668;9.578;2023-04-01T14:03:47;7.50;99.90
14378;DHT22;7272;53.668;9.578;2023-04-01T14:06:59;7.50;99.90
14378;DHT22;7272;53.668;9.578;2023-04-01T14:10:07;7.40;99.90
14378;DHT22;7272;53.668;9.578;2023-04-01T14:13:20;7.50;99.90
14378;DHT22;7272;53.668;9.578;2023-04-01T14:17:00;7.40;99.90
14378;DHT22;7272;53.668;9.578;2023-04-01T14:20:24;7.40;99.90
14378;DHT22;7272;53.668;9.578;2023-04-01T14:23:37;7.40;99.90
14378;DHT22;7272;53.668;9.578;2023-04-01T14:30:40;7.30;99.90
14378;DHT22;7272;53.668;9.578;2023-04-01T14:33:56;7.30;99.90
14378;DHT22;7272;53.668;9.578;2023-04-01T14:37:17;7.40;99.90
14378;DHT22;7272;53.668;9.578;2023-04-01T14:40:45;7.50;99.90
14378;DHT22;7272;53.668;9.578;2023-04-01T14:44:18;7.40;99.90
14378;DHT22;7272;53.668;9.578;2023-04-01T14:47:39;7.40;99.90
14378;DHT22;7272;53.668;9.578;2023-04-01T14:50:46;7.50;99.90
14378;DHT22;7272;53.668;9.578;2023-04-01T14:54:03;7.40;99.90
14378;DHT22;7272;53.668;9.578;2023-04-01T14:57:11;7.40;99.90
14378;DHT22;7272;53.668;9.578;2023-04-01T15:00:17;7.30;99.90
14378;DHT22;7272;53.668;9.578;2023-04-01T15:03:24;7.30;99.90
14378;DHT22;7272;53.668;9.578;2023-04-01T15:06:48;7.30;99.90
14378;DHT22;7272;53.668;9.578;2023-04-01T15:10:01;7.30;99.90
14378;DHT22;7272;53.668;9.578;2023-04-01T15:13:12;7.30;99.90
14378;DHT22;7272;53.668;9.578;2023-04-01T15:16:21;7.30;99.90
14378;DHT22;7272;53.668;9.578;2023-04-01T15:19:36;7.30;99.90
14378;DHT22;7272;53.668;9.578;2023-04-01T15:22:49;7.20;99.90
14378;DHT22;7272;53.668;9.578;2023-04-01T15:26:18;7.20;99.90
14378;DHT22;7272;53.668;9.578;2023-04-01T15:29:42;7.20;99.90
14378;DHT22;7272;53.668;9.578;2023-04-01T15:32:59;7.20;99.90
14378;DHT22;7272;53.668;9.578;2023-04-01T15:36:10;7.30;99.90
14378;DHT22;7272;53.668;9.578;2023-04-01T15:39:20;7.20;99.90
14378;DHT22;7272;53.668;9.578;2023-04-01T15:42:45;7.20;99.90
14378;DHT22;7272;53.668;9.578;2023-04-01T15:45:59;7.20;99.90
14378;DHT22;7272;53.668;9.578;2023-04-01T15:49:19;7.20;99.90
14378;DHT22;7272;53.668;9.578;2023-04-01T15:52:37;7.00;99.90
14378;DHT22;7272;53.668;9.578;2023-04-01T15:55:48;7.00;99.90
14378;DHT22;7272;53.668;9.578;2023-04-01T15:59:01;7.00;99.90
14378;DHT22;7272;53.668;9.578;2023-04-01T16:02:15;6.90;99.90
14378;DHT22;7272;53.668;9.578;2023-04-01T16:05:35;6.90;99.90
14378;DHT22;7272;53.668;9.578;2023-04-01T16:12:10;6.80;99.90
14378;DHT22;7272;53.668;9.578;2023-04-01T16:15:26;6.80;99.90
14378;DHT22;7272;53.668;9.578;2023-04-01T16:18:44;6.80;99.90
14378;DHT22;7272;53.668;9.578;2023-04-01T16:21:53;6.80;99.90
14378;DHT22;7272;53.668;9.578;2023-04-01T16:25:14;6.80;99.90
14378;DHT22;7272;53.668;9.578;2023-04-01T16:28:28;6.80;99.90
14378;DHT22;7272;53.668;9.578;2023-04-01T16:31:38;6.80;99.90
14378;DHT22;7272;53.668;9.578;2023-04-01T16:34:56;6.80;99.90
14378;DHT22;7272;53.668;9.578;2023-04-01T16:38:05;6.70;99.90
14378;DHT22;7272;53.668;9.578;2023-04-01T16:41:14;6.70;99.90
14378;DHT22;7272;53.668;9.578;2023-04-01T16:44:20;6.70;99.90
14378;DHT22;7272;53.668;9.578;2023-04-01T16:47:29;6.60;99.90
14378;DHT22;7272;53.668;9.578;2023-04-01T16:50:43;6.50;99.90
14378;DHT22;7272;53.668;9.578;2023-04-01T16:53:49;6.60;99.90
14378;DHT22;7272;53.668;9.578;2023-04-01T16:56:55;6.50;99.90
14378;DHT22;7272;53.668;9.578;2023-04-01T17:00:03;6.60;99.90
14378;DHT22;7272;53.668;9.578;2023-04-01T17:03:12;6.60;99.90
14378;DHT22;7272;53.668;9.578;2023-04-01T17:06:25;6.50;99.90
14378;DHT22;7272;53.668;9.578;2023-04-01T17:09:40;6.50;99.90
14378;DHT22;7272;53.668;9.578;2023-04-01T17:12:47;6.50;99.90
14378;DHT22;7272;53.668;9.578;2023-04-01T17:16:01;6.50;99.90
14378;DHT22;7272;53.668;9.578;2023-04-01T17:19:14;6.50;99.90
14378;DHT22;7272;53.668;9.578;2023-04-01T17:22:27;6.50;99.90
14378;DHT22;7272;53.668;9.578;2023-04-01T17:25:39;6.40;99.90
14378;DHT22;7272;53.668;9.578;2023-04-01T17:28:48;6.30;99.90
14378;DHT22;7272;53.668;9.578;2023-04-01T17:31:57;6.40;99.90
14378;DHT22;7272;53.668;9.578;2023-04-01T17:35:11;6.50;99.90
14378;DHT22;7272;53.668;9.578;2023-04-01T17:38:21;6.40;99.90
14378;DHT22;7272;53.668;9.578;2023-04-01T17:41:35;6.30;99.90
14378;DHT22;7272;53.668;9.578;2023-04-01T17:44:47;6.30;99.90
14378;DHT22;7272;53.668;9.578;2023-04-01T17:48:00;6.30;99.90
14378;DHT22;7272;53.668;9.578;2023-04-01T17:51:17;6.30;99.90
14378;DHT22;7272;53.668;9.578;2023-04-01T17:54:27;6.30;99.90
14378;DHT22;7272;53.668;9.578;2023-04-01T17:57:42;6.30;99.90
14378;DHT22;7272;53.668;9.578;2023-04-01T18:01:03;6.20;99.90
14378;DHT22;7272;53.668;9.578;2023-04-01T18:04:15;6.10;99.90
14378;DHT22;7272;53.668;9.578;2023-04-01T18:07:51;6.10;99.90
14378;DHT22;7272;53.668;9.578;2023-04-01T18:11:08;6.00;99.90
14378;DHT22;7272;53.668;9.578;2023-04-01T18:17:51;5.90;99.90
14378;DHT22;7272;53.668;9.578;2023-04-01T18:21:02;5.90;99.90
14378;DHT22;7272;53.668;9.578;2023-04-01T18:24:18;5.90;99.90
14378;DHT22;7272;53.668;9.578;2023-04-01T18:27:24;5.90;99.90
14378;DHT22;7272;53.668;9.578;2023-04-01T18:30:32;5.90;99.90
14378;DHT22;7272;53.668;9.578;2023-04-01T18:33:44;5.80;99.90
14378;DHT22;7272;53.668;9.578;2023-04-01T18:36:53;5.70;99.90
14378;DHT22;7272;53.668;9.578;2023-04-01T18:40:10;5.70;99.90
14378;DHT22;7272;53.668;9.578;2023-04-01T18:43:20;5.70;99.90
14378;DHT22;7272;53.668;9.578;2023-04-01T18:46:28;5.70;99.90
14378;DHT22;7272;53.668;9.578;2023-04-01T18:49:40;5.70;99.90
14378;DHT22;7272;53.668;9.578;2023-04-01T18:52:45;5.70;99.90
14378;DHT22;7272;53.668;9.578;2023-04-01T18:55:54;5.70;99.90
14378;DHT22;7272;53.668;9.578;2023-04-01T18:59:03;5.60;99.90
14378;DHT22;7272;53.668;9.578;2023-04-01T19:02:16;5.60;99.90
14378;DHT22;7272;53.668;9.578;2023-04-01T19:05:30;5.60;99.90
14378;DHT22;7272;53.668;9.578;2023-04-01T19:08:33;5.50;99.90
14378;DHT22;7272;53.668;9.578;2023-04-01T19:11:43;5.50;99.90
14378;DHT22;7272;53.668;9.578;2023-04-01T19:15:02;5.60;99.90
14378;DHT22;7272;53.668;9.578;2023-04-01T19:18:45;5.50;99.90
14378;DHT22;7272;53.668;9.578;2023-04-01T19:21:55;5.40;99.90
14378;DHT22;7272;53.668;9.578;2023-04-01T19:25:12;5.40;99.90
14378;DHT22;7272;53.668;9.578;2023-04-01T19:28:29;5.40;99.90
14378;DHT22;7272;53.668;9.578;2023-04-01T19:31:44;5.40;99.90
14378;DHT22;7272;53.668;9.578;2023-04-01T19:34:57;5.40;99.90
14378;DHT22;7272;53.668;9.578;2023-04-01T19:38:04;5.30;99.90
14378;DHT22;7272;53.668;9.578;2023-04-01T19:41:22;5.30;99.90
14378;DHT22;7272;53.668;9.578;2023-04-01T19:44:43;5.40;99.90
14378;DHT22;7272;53.668;9.578;2023-04-01T19:47:57;5.40;99.90
14378;DHT22;7272;53.668;9.578;2023-04-01T19:51:07;5.30;99.90
14378;DHT22;7272;53.668;9.578;2023-04-01T19:54:19;5.40;99.90
14378;DHT22;7272;53.668;9.578;2023-04-01T19:57:27;5.30;99.90
14378;DHT22;7272;53.668;9.578;2023-04-01T20:00:37;5.30;99.90
14378;DHT22;7272;53.668;9.578;2023-04-01T20:03:42;5.30;99.90
14378;DHT22;7272;53.668;9.578;2023-04-01T20:06:51;5.20;99.90
14378;DHT22;7272;53.668;9.578;2023-04-01T20:09:58;5.20;99.90
14378;DHT22;7272;53.668;9.578;2023-04-01T20:13:08;5.20;99.90
14378;DHT22;7272;53.668;9.578;2023-04-01T20:16:15;5.10;99.90
14378;DHT22;7272;53.668;9.578;2023-04-01T20:19:27;5.00;99.90
14378;DHT22;7272;53.668;9.578;2023-04-01T20:22:51;4.90;99.90
14378;DHT22;7272;53.668;9.578;2023-04-01T20:25:58;4.90;99.90
14378;DHT22;7272;53.668;9.578;2023-04-01T20:29:30;4.80;99.90
14378;DHT22;7272;53.668;9.578;2023-04-01T20:33:00;4.70;99.90
14378;DHT22;7272;53.668;9.578;2023-04-01T20:36:15;4.60;99.90
14378;DHT22;7272;53.668;9.578;2023-04-01T20:39:35;4.60;99.90
14378;DHT22;7272;53.668;9.578;2023-04-01T20:42:54;4.50;99.90
14378;DHT22;7272;53.668;9.578;2023-04-01T20:45:59;4.40;99.90
14378;DHT22;7272;53.668;9.578;2023-04-01T20:49:28;4.40;99.90
14378;DHT22;7272;53.668;9.578;2023-04-01T20:52:33;4.30;99.90
14378;DHT22;7272;53.668;9.578;2023-04-01T20:56:14;4.30;99.90
14378;DHT22;7272;53.668;9.578;2023-04-01T20:59:28;4.20;99.90
14378;DHT22;7272;53.668;9.578;2023-04-01T21:02:52;4.20;99.90
14378;DHT22;7272;53.668;9.578;2023-04-01T21:06:15;4.20;99.90
14378;DHT22;7272;53.668;9.578;2023-04-01T21:09:33;4.10;99.90
14378;DHT22;7272;53.668;9.578;2023-04-01T21:12:46;4.00;99.90
14378;DHT22;7272;53.668;9.578;2023-04-01T21:15:59;4.00;99.90
14378;DHT22;7272;53.668;9.578;2023-04-01T21:19:21;4.00;99.90
14378;DHT22;7272;53.668;9.578;2023-04-01T21:22:40;4.00;99.90
14378;DHT22;7272;53.668;9.578;2023-04-01T21:29:27;3.90;99.90
14378;DHT22;7272;53.668;9.578;2023-04-01T21:32:45;3.90;99.90
14378;DHT22;7272;53.668;9.578;2023-04-01T21:35:57;3.90;99.90
14378;DHT22;7272;53.668;9.578;2023-04-01T21:39:16;3.90;99.90
14378;DHT22;7272;53.668;9.578;2023-04-01T21:42:29;3.80;99.90
14378;DHT22;7272;53.668;9.578;2023-04-01T21:45:50;3.80;99.90
14378;DHT22;7272;53.668;9.578;2023-04-01T21:49:09;3.80;99.90
14378;DHT22;7272;53.668;9.578;2023-04-01T21:52:48;3.80;99.90
14378;DHT22;7272;53.668;9.578;2023-04-01T22:00:09;3.70;99.90
14378;DHT22;7272;53.668;9.578;2023-04-01T22:03:40;3.70;99.90
14378;DHT22;7272;53.668;9.578;2023-04-01T22:06:48;3.70;99.90
14378;DHT22;7272;53.668;9.578;2023-04-01T22:10:01;3.60;99.90
14378;DHT22;7272;53.668;9.578;2023-04-01T22:13:09;3.60;99.90
14378;DHT22;7272;53.668;9.578;2023-04-01T22:16:19;3.60;99.90
14378;DHT22;7272;53.668;9.578;2023-04-01T22:19:29;3.60;99.90
14378;DHT22;7272;53.668;9.578;2023-04-01T22:22:45;3.50;99.90
14378;DHT22;7272;53.668;9.578;2023-04-01T22:25:58;3.50;99.90
14378;DHT22;7272;53.668;9.578;2023-04-01T22:29:06;3.60;99.90